Aviation Digital Data Service (ADDS)

Output produced by TAFs form (1739 UTC 21 April 2018)
found at http://aviationweather.gov/adds/tafs/
 
RJSK 211200Z VRB02KT CAVOK 16/05 Q1018
TAF RJSK 211715Z 2118/2300 30005KT 9999 FEW030 
     BECMG 2120/2122 14004KT 
     TEMPO 2120/2200 3000 BR FEW005 BKN008 
     BECMG 2200/2202 30010KT 
     BECMG 2209/2212 14006KT